< < Back
Terminal Aerodrome Forecast


Current Version              Previous Versions:   1  2  3  4  5  6  7  8  9  

Terminal Aerodrome Forecast

482
FTUS42 KGSP 091729
TAFAVL
TAF
KAVL 091729Z 0918/1018 31013G21KT P6SM -SHSN SCT035 OVC050
     FM101200 33011KT P6SM SCT040 OVC060=

Latest METAR

423
SAUS70 KWBC 091758
MTRAVL
METAR KAVL 091754Z 31011G19KT 10SM BKN047 OVC055 M02/M13 A2968 RMK AO2
SNE22 SLP062 P0000 60000 T10221128 11011 21033 58003


USA.gov is the U.S. government's official web portal to all federal, state and local government web resources and services.